Time;durP1;ratioP1;P1;durP2;ratioP2;P2;SDS_P1;SDS_P2;PMS_P1;PMS_P2;Temp;Humidity;BMP_temperature;BMP_pressure;BME280_temperature;BME280_humidity;BME280_pressure;Samples;Min_cycle;Max_cycle;Signal;HPM_P1;HPM_P2
2021/07/22 00:00:02;;;;;;;2.05;1.33;;;21.80;76.90;;;;;;5004430;28;20049;-76
2021/07/22 00:02:28;;;;;;;1.30;1.20;;;21.60;77.20;;;;;;5007332;28;20366;-74
2021/07/22 00:04:54;;;;;;;3.40;1.17;;;21.60;77.10;;;;;;5002374;28;20469;-75
2021/07/22 00:07:20;;;;;;;1.00;1.00;;;21.60;77.70;;;;;;5001007;28;20126;-73
2021/07/22 00:09:46;;;;;;;1.08;1.08;;;21.80;78.00;;;;;;5002692;28;20052;-75
2021/07/22 00:12:13;;;;;;;1.63;1.52;;;21.60;77.80;;;;;;5002048;28;20409;-74
2021/07/22 00:14:39;;;;;;;1.42;1.33;;;21.60;78.00;;;;;;4983365;28;20489;-74
2021/07/22 00:17:07;;;;;;;1.42;1.33;;;21.50;78.30;;;;;;4981194;28;20465;-77
2021/07/22 00:19:33;;;;;;;1.75;1.65;;;21.60;78.50;;;;;;5001856;28;20031;-74
2021/07/22 00:21:59;;;;;;;1.20;1.10;;;21.60;78.20;;;;;;5000073;28;20030;-77
2021/07/22 00:24:28;;;;;;;4.25;1.75;;;21.60;78.70;;;;;;5002708;28;20439;-74
2021/07/22 00:26:55;;;;;;;2.10;1.58;;;21.60;79.50;;;;;;5001419;28;20037;-75
2021/07/22 00:29:20;;;;;;;1.30;1.20;;;21.60;79.20;;;;;;4999393;28;20034;-76
2021/07/22 00:31:47;;;;;;;1.00;1.00;;;21.90;79.30;;;;;;5000049;28;20031;-75
2021/07/22 00:34:13;;;;;;;3.72;1.73;;;21.90;81.60;;;;;;5002070;28;20042;-75
2021/07/22 00:36:39;;;;;;;1.30;1.20;;;21.80;80.80;;;;;;4995521;28;20034;-76
2021/07/22 00:39:05;;;;;;;1.52;1.42;;;21.90;81.70;;;;;;4992969;28;20041;-72
2021/07/22 00:41:31;;;;;;;1.10;1.10;;;21.80;81.50;;;;;;4993034;28;20041;-75
2021/07/22 00:43:57;;;;;;;1.73;1.63;;;21.70;82.60;;;;;;4992417;28;20034;-74
2021/07/22 00:46:22;;;;;;;1.20;1.10;;;21.50;82.20;;;;;;4992928;28;20026;-74
2021/07/22 00:48:49;;;;;;;1.35;1.25;;;21.20;82.20;;;;;;4975175;28;20430;-74
2021/07/22 00:51:15;;;;;;;1.05;1.05;;;21.30;82.50;;;;;;4993094;28;20054;-74
2021/07/22 00:53:40;;;;;;;1.33;1.23;;;21.40;83.60;;;;;;4992611;28;20398;-75
2021/07/22 00:56:06;;;;;;;1.77;1.67;;;21.50;83.80;;;;;;4992642;28;20038;-75
2021/07/22 00:58:32;;;;;;;1.48;1.38;;;21.50;85.50;;;;;;4992634;28;20573;-75
2021/07/22 01:00:58;;;;;;;1.02;1.02;;;21.30;85.30;;;;;;4993221;28;20038;-75
2021/07/22 01:03:25;;;;;;;1.10;1.10;;;21.20;85.70;;;;;;4992384;28;20050;-76
2021/07/22 01:05:51;;;;;;;1.38;1.27;;;21.30;87.60;;;;;;4992735;28;20042;-75
2021/07/22 01:08:18;;;;;;;1.45;1.35;;;21.00;88.40;;;;;;4992193;28;20068;-74
2021/07/22 01:10:43;;;;;;;1.20;1.10;;;21.30;88.00;;;;;;4992417;28;20030;-74
2021/07/22 01:13:09;;;;;;;1.40;1.30;;;21.10;88.40;;;;;;4974643;28;20054;-74
2021/07/22 01:15:35;;;;;;;1.25;1.15;;;21.10;88.40;;;;;;4992466;28;20133;-73
2021/07/22 01:18:01;;;;;;;1.85;1.75;;;21.00;88.50;;;;;;4974739;28;20038;-74
2021/07/22 01:20:28;;;;;;;2.15;1.80;;;21.10;89.00;;;;;;4992242;28;20657;-75
2021/07/22 01:22:56;;;;;;;1.30;1.20;;;21.10;88.80;;;;;;4992116;28;20034;-74
2021/07/22 01:25:23;;;;;;;2.10;1.75;;;21.20;90.30;;;;;;4974974;28;20034;-74
2021/07/22 01:27:50;;;;;;;1.00;1.00;;;21.20;89.70;;;;;;4992009;28;20038;-74
2021/07/22 01:30:17;;;;;;;1.95;1.85;;;21.00;88.90;;;;;;4992259;28;20073;-75
2021/07/22 01:32:44;;;;;;;1.00;1.00;;;21.10;90.30;;;;;;4974382;28;20046;-74
2021/07/22 01:35:11;;;;;;;2.55;1.90;;;20.90;90.90;;;;;;4991812;28;20394;-74
2021/07/22 01:37:41;;;;;;;1.88;1.77;;;21.00;91.10;;;;;;4992032;28;20046;-73
2021/07/22 01:40:08;;;;;;;1.38;1.27;;;21.00;91.50;;;;;;4991762;28;20157;-73
2021/07/22 01:42:34;;;;;;;1.33;1.20;;;20.90;91.80;;;;;;4991861;28;20034;-73
2021/07/22 01:45:00;;;;;;;1.50;1.40;;;21.00;91.90;;;;;;4991504;28;20041;-74
2021/07/22 01:47:26;;;;;;;2.17;2.05;;;20.90;92.10;;;;;;4992192;28;20041;-74
2021/07/22 01:49:51;;;;;;;1.50;1.40;;;20.80;92.20;;;;;;4991337;28;20134;-73
2021/07/22 01:52:18;;;;;;;1.73;1.63;;;20.20;92.90;;;;;;4974660;28;20031;-74
2021/07/22 01:54:43;;;;;;;1.40;1.30;;;20.50;93.00;;;;;;4974027;28;20047;-75
2021/07/22 01:57:09;;;;;;;1.30;1.20;;;20.30;93.20;;;;;;4991552;28;20030;-73
2021/07/22 01:59:35;;;;;;;2.20;1.50;;;20.60;93.90;;;;;;4991700;28;20373;-74
2021/07/22 02:02:06;;;;;;;2.72;2.03;;;20.70;94.00;;;;;;4974885;28;20038;-75
2021/07/22 02:04:32;;;;;;;2.10;1.90;;;20.70;94.40;;;;;;4991512;28;20066;-75
2021/07/22 02:06:59;;;;;;;1.35;1.25;;;20.80;94.90;;;;;;4991626;28;20031;-75
2021/07/22 02:09:25;;;;;;;1.20;1.15;;;20.60;94.90;;;;;;4991850;28;20038;-76
2021/07/22 02:11:52;;;;;;;1.30;1.20;;;20.60;95.40;;;;;;4991371;28;20110;-76
2021/07/22 02:14:18;;;;;;;4.72;1.88;;;20.60;95.30;;;;;;4991641;28;20043;-74
2021/07/22 02:16:44;;;;;;;3.08;2.00;;;20.70;94.50;;;;;;4991625;28;20035;-74
2021/07/22 02:19:09;;;;;;;1.58;1.48;;;20.50;94.80;;;;;;4991016;28;20049;-74
2021/07/22 02:21:39;;;;;;;1.00;1.00;;;20.50;94.90;;;;;;5002813;28;20034;-74
2021/07/22 02:24:05;;;;;;;1.40;1.30;;;20.60;95.00;;;;;;4997016;28;20394;-74
2021/07/22 02:26:32;;;;;;;1.33;1.23;;;20.60;95.00;;;;;;4991408;28;20406;-74
2021/07/22 02:28:57;;;;;;;3.00;2.75;;;20.70;95.00;;;;;;4991506;28;20022;-76
2021/07/22 02:31:23;;;;;;;1.75;1.65;;;20.90;95.30;;;;;;4991590;28;20042;-75
2021/07/22 02:33:49;;;;;;;1.88;1.73;;;20.80;96.30;;;;;;4991492;28;20034;-74
2021/07/22 02:36:15;;;;;;;1.40;1.30;;;20.80;96.60;;;;;;4991324;28;20485;-74
2021/07/22 02:38:40;;;;;;;1.20;1.10;;;20.80;96.90;;;;;;4991430;28;20158;-74
2021/07/22 02:41:06;;;;;;;2.45;1.85;;;20.80;97.00;;;;;;4973946;28;20406;-74
2021/07/22 02:43:33;;;;;;;5.88;2.60;;;20.60;96.50;;;;;;4991256;28;20039;-75
2021/07/22 02:46:05;;;;;;;1.50;1.40;;;20.50;96.50;;;;;;4995251;28;20034;-75
2021/07/22 02:48:30;;;;;;;1.20;1.10;;;20.70;97.10;;;;;;4995275;28;20352;-74
2021/07/22 02:51:00;;;;;;;1.55;1.45;;;20.80;97.40;;;;;;4995017;28;20478;-77
2021/07/22 02:53:27;;;;;;;1.30;1.20;;;20.80;97.00;;;;;;4994994;28;20034;-74
2021/07/22 02:55:59;;;;;;;1.55;1.45;;;20.50;97.10;;;;;;4994605;28;20578;-72
2021/07/22 02:58:26;;;;;;;1.30;1.20;;;20.60;97.20;;;;;;4994696;28;20026;-73
2021/07/22 03:00:52;;;;;;;1.58;1.48;;;20.90;97.50;;;;;;4995160;28;20356;-74
2021/07/22 03:03:18;;;;;;;1.50;1.40;;;20.80;97.20;;;;;;4977218;28;20078;-74
2021/07/22 03:05:44;;;;;;;1.13;1.10;;;20.60;97.00;;;;;;4977113;28;20058;-73
2021/07/22 03:08:10;;;;;;;2.28;2.08;;;20.60;97.40;;;;;;4994611;28;20105;-73
2021/07/22 03:10:36;;;;;;;2.08;1.80;;;20.90;97.40;;;;;;4994639;28;20117;-74
2021/07/22 03:13:03;;;;;;;1.50;1.40;;;21.00;97.70;;;;;;4976840;28;20042;-74
2021/07/22 03:15:29;;;;;;;1.52;1.42;;;21.10;97.60;;;;;;4994397;28;20116;-73
2021/07/22 03:17:56;;;;;;;3.30;1.85;;;21.10;97.50;;;;;;4994555;28;20438;-75
2021/07/22 03:20:21;;;;;;;1.17;1.10;;;21.10;97.90;;;;;;4994292;28;20042;-74
2021/07/22 03:22:47;;;;;;;1.05;1.05;;;21.00;98.20;;;;;;4994384;28;20031;-76
2021/07/22 03:25:13;;;;;;;1.20;1.10;;;21.00;98.40;;;;;;4994276;28;20026;-73
2021/07/22 03:27:39;;;;;;;1.23;1.13;;;20.90;98.60;;;;;;4976577;28;20038;-74
2021/07/22 03:30:05;;;;;;;1.27;1.17;;;20.90;98.60;;;;;;4994488;28;20034;-73
2021/07/22 03:32:31;;;;;;;1.20;1.10;;;20.90;98.90;;;;;;4994072;28;20494;-74
2021/07/22 03:34:57;;;;;;;1.20;1.17;;;20.90;98.60;;;;;;4976340;28;20549;-74
2021/07/22 03:37:23;;;;;;;1.67;1.58;;;20.50;98.90;;;;;;4994080;28;20484;-74
2021/07/22 03:39:48;;;;;;;3.65;3.05;;;20.60;99.20;;;;;;4994132;28;20041;-74
2021/07/22 03:42:14;;;;;;;1.40;1.30;;;20.70;98.90;;;;;;4993915;28;20104;-74
2021/07/22 03:44:40;;;;;;;1.75;1.65;;;20.50;98.90;;;;;;4993899;28;20049;-74
2021/07/22 03:47:06;;;;;;;1.27;1.17;;;20.40;99.30;;;;;;4993995;28;20390;-74
2021/07/22 03:49:33;;;;;;;1.77;1.67;;;20.40;99.60;;;;;;4993916;28;20490;-74
2021/07/22 03:51:58;;;;;;;1.63;1.52;;;20.40;99.70;;;;;;4993683;28;20030;-73
2021/07/22 03:54:24;;;;;;;1.50;1.40;;;20.80;99.80;;;;;;4993430;28;20711;-74
2021/07/22 03:56:50;;;;;;;1.50;1.40;;;20.90;99.50;;;;;;4993663;28;20364;-73
2021/07/22 03:59:19;;;;;;;1.33;1.23;;;20.90;99.20;;;;;;4993600;28;20113;-73
2021/07/22 04:01:45;;;;;;;1.30;1.20;;;20.80;99.20;;;;;;4993414;28;20030;-73
2021/07/22 04:04:11;;;;;;;1.58;1.48;;;20.70;99.70;;;;;;4993718;28;20359;-74
2021/07/22 04:06:37;;;;;;;1.30;1.20;;;20.60;99.50;;;;;;4993337;28;20039;-75
2021/07/22 04:09:04;;;;;;;1.42;1.33;;;20.70;99.30;;;;;;4993522;28;20081;-75
2021/07/22 04:11:30;;;;;;;2.38;1.50;;;20.80;99.40;;;;;;4975594;28;20042;-74
2021/07/22 04:13:56;;;;;;;1.42;1.33;;;21.10;99.70;;;;;;4993159;28;20038;-74
2021/07/22 04:16:22;;;;;;;1.67;1.58;;;21.30;99.90;;;;;;4993520;28;20118;-75
2021/07/22 04:18:47;;;;;;;1.25;1.17;;;21.30;98.90;;;;;;4992783;28;20106;-74
2021/07/22 04:21:13;;;;;;;1.48;1.38;;;21.40;99.90;;;;;;4993140;28;20034;-74
2021/07/22 04:23:39;;;;;;;1.20;1.15;;;21.40;99.90;;;;;;4993174;28;20097;-73
2021/07/22 04:26:05;;;;;;;1.05;1.02;;;21.40;99.90;;;;;;4976005;28;20038;-75
2021/07/22 04:28:31;;;;;;;1.13;1.10;;;21.40;99.90;;;;;;4992817;28;20489;-75
2021/07/22 04:30:57;;;;;;;1.30;1.20;;;21.40;99.90;;;;;;4993670;28;20030;-75
2021/07/22 04:33:23;;;;;;;1.40;1.15;;;21.40;99.90;;;;;;4992616;28;20505;-74
2021/07/22 04:35:53;;;;;;;1.27;1.17;;;21.30;99.90;;;;;;4993058;28;20478;-74
2021/07/22 04:38:19;;;;;;;1.75;1.65;;;21.20;99.90;;;;;;4992394;28;20089;-74
2021/07/22 04:40:45;;;;;;;1.27;1.17;;;21.30;99.90;;;;;;4992869;28;20030;-73
2021/07/22 04:43:10;;;;;;;1.40;1.30;;;21.30;99.90;;;;;;4992713;28;20089;-76
2021/07/22 04:45:36;;;;;;;1.02;1.02;;;21.50;99.90;;;;;;4993205;28;20057;-75
2021/07/22 04:48:03;;;;;;;1.17;1.10;;;21.20;99.90;;;;;;4992387;28;20505;-76
2021/07/22 04:50:29;;;;;;;3.55;2.30;;;21.20;99.90;;;;;;4975230;28;20383;-75
2021/07/22 04:52:54;;;;;;;3.00;2.45;;;21.50;99.70;;;;;;4992597;28;20498;-75
2021/07/22 04:55:20;;;;;;;1.52;1.42;;;21.20;99.40;;;;;;4992558;28;20121;-74
2021/07/22 04:57:46;;;;;;;1.55;1.45;;;21.20;99.60;;;;;;4992616;28;20048;-73
2021/07/22 05:00:12;;;;;;;1.65;1.55;;;21.20;99.40;;;;;;4992738;28;20039;-73
2021/07/22 05:02:38;;;;;;;3.58;3.28;;;21.30;99.60;;;;;;4974991;28;20050;-75
2021/07/22 05:05:04;;;;;;;2.47;2.28;;;21.20;99.80;;;;;;4992714;28;20038;-76
2021/07/22 05:07:29;;;;;;;2.42;2.08;;;21.10;99.60;;;;;;4974299;28;20084;-73
2021/07/22 05:09:55;;;;;;;1.10;1.10;;;21.20;99.60;;;;;;4992391;28;20050;-74
2021/07/22 05:12:21;;;;;;;1.95;1.42;;;21.10;99.60;;;;;;4992366;28;20073;-75
2021/07/22 05:14:47;;;;;;;1.00;1.00;;;21.40;99.50;;;;;;4992343;28;20052;-74
2021/07/22 05:17:12;;;;;;;1.80;1.70;;;21.30;99.40;;;;;;4992376;28;20655;-74
2021/07/22 05:19:38;;;;;;;1.00;1.00;;;21.50;99.20;;;;;;4992333;28;20486;-76
2021/07/22 05:22:04;;;;;;;1.40;1.30;;;21.40;99.30;;;;;;4992495;28;20084;-74
2021/07/22 05:24:30;;;;;;;1.00;1.00;;;21.30;99.30;;;;;;4992123;28;20042;-76
2021/07/22 05:26:55;;;;;;;1.52;1.42;;;21.40;99.20;;;;;;4992212;28;20113;-76
2021/07/22 05:29:21;;;;;;;1.50;1.40;;;21.50;99.40;;;;;;4991916;28;20046;-77
2021/07/22 05:31:47;;;;;;;1.08;1.08;;;21.50;99.90;;;;;;4992275;28;20482;-76
2021/07/22 05:34:13;;;;;;;1.30;1.20;;;21.70;99.10;;;;;;4974048;28;20498;-78
2021/07/22 05:36:40;;;;;;;1.65;1.55;;;21.60;99.90;;;;;;4992502;28;20105;-78
2021/07/22 05:39:06;;;;;;;1.35;1.25;;;21.90;99.80;;;;;;4991827;28;20026;-77
2021/07/22 05:41:31;;;;;;;1.20;1.10;;;22.00;99.70;;;;;;4974830;28;20045;-78
2021/07/22 05:43:57;;;;;;;1.30;1.20;;;22.20;99.20;;;;;;4991736;28;20359;-76
2021/07/22 05:46:23;;;;;;;0.90;0.90;;;22.00;99.50;;;;;;4992364;28;20391;-75
2021/07/22 05:48:49;;;;;;;2.20;2.10;;;22.00;99.40;;;;;;4991156;28;20379;-75
2021/07/22 05:51:15;;;;;;;1.95;1.77;;;21.90;99.40;;;;;;4992242;28;20397;-77
2021/07/22 05:53:41;;;;;;;1.33;1.23;;;21.80;99.40;;;;;;4974107;28;20042;-77
2021/07/22 05:56:09;;;;;;;1.45;1.35;;;21.50;99.60;;;;;;4991870;28;20038;-76
2021/07/22 05:58:35;;;;;;;9.35;3.33;;;21.80;99.90;;;;;;4991769;28;20026;-77
2021/07/22 06:01:05;;;;;;;1.98;1.50;;;21.90;99.70;;;;;;4992537;28;20040;-78
2021/07/22 06:03:31;;;;;;;1.98;1.50;;;22.10;99.50;;;;;;4991304;28;20395;-79
2021/07/22 06:05:57;;;;;;;1.83;1.73;;;22.20;99.10;;;;;;4991982;28;20034;-79
2021/07/22 06:08:23;;;;;;;1.23;1.13;;;22.30;99.20;;;;;;4991204;28;20035;-77
2021/07/22 06:10:48;;;;;;;1.08;1.05;;;22.40;98.90;;;;;;4991821;28;20510;-76
2021/07/22 06:13:15;;;;;;;1.00;1.00;;;22.30;98.60;;;;;;4991311;28;20046;-75
2021/07/22 06:15:40;;;;;;;1.38;1.27;;;22.10;99.20;;;;;;4974306;28;20067;-76
2021/07/22 06:18:06;;;;;;;1.45;1.35;;;22.10;98.80;;;;;;4974585;28;20038;-77
2021/07/22 06:20:32;;;;;;;0.90;0.90;;;22.40;99.40;;;;;;4978457;28;20038;-77
2021/07/22 06:22:58;;;;;;;2.97;1.50;;;22.50;98.20;;;;;;4995957;28;20030;-76
2021/07/22 06:25:23;;;;;;;1.20;1.17;;;22.60;98.50;;;;;;4995082;28;20034;-76
2021/07/22 06:27:49;;;;;;;1.38;1.27;;;22.60;98.30;;;;;;4995628;28;20034;-75
2021/07/22 06:30:15;;;;;;;1.40;1.30;;;22.40;98.40;;;;;;4995612;28;20045;-77
2021/07/22 06:32:42;;;;;;;2.60;1.63;;;22.50;98.40;;;;;;4995641;28;20038;-76
2021/07/22 06:35:08;;;;;;;5.15;1.48;;;22.50;98.40;;;;;;4994907;28;20050;-75
2021/07/22 06:37:47;;;;;;;1.63;1.52;;;22.60;98.30;;;;;;4995648;28;20123;-76
2021/07/22 06:40:14;;;;;;;0.88;0.88;;;22.60;97.90;;;;;;4995018;28;20037;-78
2021/07/22 06:42:40;;;;;;;1.75;1.65;;;22.50;97.80;;;;;;4977656;28;20034;-75
2021/07/22 06:45:06;;;;;;;0.80;0.80;;;22.60;98.10;;;;;;4995136;28;20072;-76
2021/07/22 06:47:35;;;;;;;1.00;1.00;;;22.80;98.10;;;;;;4995189;28;20363;-78
2021/07/22 06:50:01;;;;;;;0.80;0.80;;;22.90;97.80;;;;;;4995077;28;20042;-75
2021/07/22 06:52:27;;;;;;;0.82;0.82;;;22.90;97.60;;;;;;4995772;28;20035;-76
2021/07/22 06:54:53;;;;;;;1.50;1.40;;;22.70;97.30;;;;;;4994525;28;20494;-76
2021/07/22 06:57:18;;;;;;;0.80;0.80;;;23.10;97.00;;;;;;4995306;28;20031;-79
2021/07/22 06:59:44;;;;;;;3.80;1.83;;;23.10;97.10;;;;;;4994924;28;20041;-78
2021/07/22 07:02:10;;;;;;;2.88;1.38;;;23.20;97.10;;;;;;4994825;28;20548;-78
2021/07/22 07:04:35;;;;;;;1.00;1.00;;;23.30;96.90;;;;;;4994499;28;20038;-78
2021/07/22 07:07:01;;;;;;;0.98;0.98;;;23.40;96.80;;;;;;4994914;28;20027;-80
2021/07/22 07:09:27;;;;;;;5.40;1.70;;;23.10;96.50;;;;;;4994575;28;20042;-77
2021/07/22 07:11:53;;;;;;;0.93;0.93;;;23.30;95.70;;;;;;4994299;28;20039;-76
2021/07/22 07:14:18;;;;;;;1.17;1.10;;;23.20;96.00;;;;;;4994586;28;20508;-75
2021/07/22 07:16:44;;;;;;;6.68;1.50;;;23.20;95.90;;;;;;4994793;28;20035;-75
2021/07/22 07:19:10;;;;;;;1.00;1.00;;;23.10;95.60;;;;;;4994368;28;20484;-73
2021/07/22 07:21:39;;;;;;;1.08;0.98;;;23.20;95.40;;;;;;4994442;28;20065;-80
2021/07/22 07:24:05;;;;;;;0.70;0.70;;;23.40;95.20;;;;;;4994333;28;20034;-76
2021/07/22 07:26:31;;;;;;;0.90;0.90;;;23.80;94.90;;;;;;4994229;28;20026;-75
2021/07/22 07:28:57;;;;;;;0.77;0.77;;;23.80;93.60;;;;;;4994109;28;20642;-75
2021/07/22 07:31:23;;;;;;;0.95;0.95;;;23.80;93.10;;;;;;4993677;28;20490;-75
2021/07/22 07:33:50;;;;;;;1.35;1.25;;;23.70;93.70;;;;;;4994097;28;20047;-75
2021/07/22 07:36:16;;;;;;;0.93;0.93;;;23.80;93.20;;;;;;4994451;28;20093;-76
2021/07/22 07:38:42;;;;;;;1.08;1.08;;;23.90;94.00;;;;;;4994050;28;20031;-76
2021/07/22 07:41:07;;;;;;;1.45;1.35;;;24.20;93.30;;;;;;4994184;28;20114;-76
2021/07/22 07:43:33;;;;;;;0.80;0.80;;;24.10;92.80;;;;;;4994108;28;20544;-77
2021/07/22 07:45:59;;;;;;;1.83;1.73;;;24.20;93.10;;;;;;4993947;28;20469;-75
2021/07/22 07:48:25;;;;;;;0.98;0.98;;;24.40;93.10;;;;;;4993916;28;20546;-77
2021/07/22 07:50:50;;;;;;;0.95;0.90;;;24.60;93.50;;;;;;4993986;28;20389;-77
2021/07/22 07:53:18;;;;;;;0.80;0.80;;;24.30;91.90;;;;;;4994043;28;20639;-76
2021/07/22 07:55:45;;;;;;;1.20;1.10;;;24.30;92.00;;;;;;4993673;28;20038;-75
2021/07/22 07:58:12;;;;;;;1.63;1.52;;;24.20;92.10;;;;;;4993708;28;20127;-75
2021/07/22 08:00:38;;;;;;;0.60;0.60;;;24.50;91.90;;;;;;4994069;28;20042;-77
2021/07/22 08:03:04;;;;;;;1.33;1.23;;;24.50;92.50;;;;;;4976516;28;20053;-75
2021/07/22 08:05:30;;;;;;;0.80;0.80;;;24.80;92.10;;;;;;4993397;28;20022;-76
2021/07/22 08:07:56;;;;;;;0.85;0.85;;;24.70;91.70;;;;;;4993864;28;20030;-75
2021/07/22 08:10:23;;;;;;;0.80;0.80;;;24.60;90.70;;;;;;4976202;28;20485;-76
2021/07/22 08:12:48;;;;;;;0.70;0.70;;;24.30;91.20;;;;;;4992947;28;20077;-76
2021/07/22 08:15:15;;;;;;;0.90;0.90;;;24.40;90.80;;;;;;4993653;28;20081;-76
2021/07/22 08:17:41;;;;;;;0.80;0.80;;;24.60;91.10;;;;;;4993650;28;20490;-76
2021/07/22 08:20:09;;;;;;;3.65;1.65;;;24.90;90.90;;;;;;4993145;28;20471;-76
2021/07/22 08:22:37;;;;;;;0.90;0.90;;;25.20;90.70;;;;;;4993417;28;20042;-75
2021/07/22 08:25:04;;;;;;;0.98;0.95;;;25.30;89.60;;;;;;4993331;28;20073;-76
2021/07/22 08:27:31;;;;;;;0.90;0.90;;;25.50;90.20;;;;;;4993230;28;20049;-76
2021/07/22 08:29:57;;;;;;;1.27;1.17;;;25.60;90.00;;;;;;4993503;28;20041;-76
2021/07/22 08:32:24;;;;;;;1.02;0.93;;;25.70;88.90;;;;;;4993256;28;20038;-76
2021/07/22 08:34:49;;;;;;;0.77;0.75;;;25.80;88.50;;;;;;4993037;28;20054;-78
2021/07/22 08:37:15;;;;;;;0.60;0.60;;;25.80;88.10;;;;;;4993120;28;20034;-76
2021/07/22 08:39:43;;;;;;;0.63;0.63;;;25.50;86.10;;;;;;4975501;28;20038;-73
2021/07/22 08:42:11;;;;;;;0.93;0.90;;;25.10;86.20;;;;;;4991963;28;20061;-77
2021/07/22 08:44:41;;;;;;;1.10;0.85;;;25.20;87.70;;;;;;4993189;28;20127;-73
2021/07/22 08:47:08;;;;;;;2.75;1.30;;;25.40;86.80;;;;;;4993035;28;20066;-73
2021/07/22 08:49:35;;;;;;;0.50;0.50;;;25.70;88.50;;;;;;4992708;28;20034;-76
2021/07/22 08:52:05;;;;;;;0.50;0.50;;;25.70;86.50;;;;;;4992926;28;20081;-75
2021/07/22 08:54:31;;;;;;;0.68;0.68;;;25.70;86.50;;;;;;4975132;28;20065;-73
2021/07/22 08:56:59;;;;;;;0.73;0.73;;;25.70;85.80;;;;;;4992164;28;20390;-77
2021/07/22 08:59:26;;;;;;;1.45;1.35;;;25.70;84.80;;;;;;4992948;28;20406;-75
2021/07/22 09:01:54;;;;;;;0.60;0.60;;;25.70;83.70;;;;;;4992718;28;20382;-76
2021/07/22 09:04:21;;;;;;;0.93;0.93;;;25.50;84.10;;;;;;4992389;28;20038;-75
2021/07/22 09:06:46;;;;;;;0.50;0.50;;;25.40;83.60;;;;;;4974956;28;20034;-75
2021/07/22 09:09:16;;;;;;;0.60;0.60;;;25.30;84.30;;;;;;4992308;28;20675;-75
2021/07/22 09:11:56;;;;;;;1.05;0.95;;;25.60;84.30;;;;;;4992023;28;20398;-73
2021/07/22 09:14:24;;;;;;;0.52;0.52;;;26.10;81.80;;;;;;4992433;28;20451;-74
2021/07/22 09:16:50;;;;;;;0.60;0.60;;;26.50;80.40;;;;;;4992477;28;20045;-74
2021/07/22 09:19:32;;;;;;;2.05;1.38;;;26.80;79.40;;;;;;4991738;28;20109;-77
2021/07/22 09:21:58;;;;;;;0.60;0.60;;;27.10;79.20;;;;;;4992326;28;20364;-76
2021/07/22 09:24:25;;;;;;;0.50;0.50;;;27.00;77.80;;;;;;4992090;28;20034;-75
2021/07/22 09:26:51;;;;;;;0.52;0.52;;;27.00;77.00;;;;;;4992193;28;20093;-75
2021/07/22 09:29:17;;;;;;;0.70;0.70;;;27.10;75.90;;;;;;4994626;28;20030;-74
2021/07/22 09:31:45;;;;;;;0.70;0.70;;;27.30;76.20;;;;;;4996993;28;20112;-76
2021/07/22 09:34:24;;;;;;;0.77;0.77;;;27.30;75.10;;;;;;5001488;28;20042;-74
2021/07/22 09:36:50;;;;;;;0.70;0.70;;;27.30;75.70;;;;;;5000436;28;20033;-76
2021/07/22 09:39:23;;;;;;;0.60;0.60;;;27.30;74.50;;;;;;4999650;28;20042;-75
2021/07/22 09:42:00;;;;;;;0.77;0.77;;;27.70;74.70;;;;;;5001315;28;20030;-78
2021/07/22 09:44:39;;;;;;;0.40;0.40;;;27.90;73.70;;;;;;5001227;28;20452;-75
2021/07/22 09:47:10;;;;;;;0.88;0.73;;;26.90;72.90;;;;;;4980330;28;20490;-74
2021/07/22 09:49:37;;;;;;;0.68;0.68;;;27.10;75.00;;;;;;4981920;28;20117;-75
2021/07/22 09:52:25;;;;;;;0.40;0.40;;;26.60;73.00;;;;;;5001384;28;20030;-75
2021/07/22 09:54:51;;;;;;;0.70;0.70;;;26.90;72.70;;;;;;4998348;28;20398;-75
2021/07/22 09:57:20;;;;;;;1.75;1.23;;;27.10;73.30;;;;;;4983271;28;20485;-75
2021/07/22 09:59:47;;;;;;;0.70;0.70;;;27.60;72.50;;;;;;4982502;28;20496;-75
2021/07/22 10:02:20;;;;;;;0.65;0.63;;;27.80;72.20;;;;;;5001352;28;20448;-75
2021/07/22 10:04:52;;;;;;;0.73;0.70;;;28.20;71.50;;;;;;4997076;28;20076;-76
2021/07/22 10:07:21;;;;;;;1.08;0.80;;;28.40;70.30;;;;;;5000121;28;20029;-76
2021/07/22 10:09:50;;;;;;;0.70;0.70;;;28.40;69.80;;;;;;4982449;28;20541;-76
2021/07/22 10:12:22;;;;;;;0.98;0.68;;;28.60;68.80;;;;;;4996501;28;20318;-74
2021/07/22 10:14:55;;;;;;;0.45;0.45;;;28.60;68.10;;;;;;4982663;28;20045;-74
2021/07/22 10:17:30;;;;;;;0.40;0.40;;;28.80;68.80;;;;;;4972338;28;20031;-74
2021/07/22 10:19:58;;;;;;;0.65;0.65;;;28.80;68.00;;;;;;4972136;28;20398;-76
2021/07/22 10:22:25;;;;;;;0.77;0.55;;;28.80;67.50;;;;;;4972092;28;20031;-75
2021/07/22 10:24:53;;;;;;;0.55;0.55;;;28.90;67.70;;;;;;4993368;28;20042;-79
2021/07/22 10:27:20;;;;;;;0.50;0.50;;;28.00;68.50;;;;;;4974079;28;20038;-76
2021/07/22 10:29:46;;;;;;;2.78;0.85;;;28.10;67.40;;;;;;4991681;28;20468;-75
2021/07/22 10:32:27;;;;;;;1.40;0.60;;;28.40;68.60;;;;;;4998272;28;20046;-78
2021/07/22 10:34:57;;;;;;;0.57;0.57;;;28.90;67.00;;;;;;4978915;28;20038;-73
2021/07/22 10:37:23;;;;;;;0.68;0.65;;;28.10;66.70;;;;;;5000975;28;20039;-73
2021/07/22 10:40:00;;;;;;;0.57;0.57;;;27.90;67.10;;;;;;4998722;28;20081;-76
2021/07/22 10:42:48;;;;;;;0.60;0.60;;;28.00;66.80;;;;;;4999005;28;20081;-78
2021/07/22 10:45:20;;;;;;;1.13;0.90;;;28.70;66.50;;;;;;4973578;28;20496;-75
2021/07/22 10:48:10;;;;;;;0.32;0.32;;;28.00;65.90;;;;;;4970517;28;20564;-76
2021/07/22 10:50:45;;;;;;;;;;;27.90;67.00;;;;;;4987605;28;20030;-74
2021/07/22 10:53:11;;;;;;;0.65;0.55;;;27.40;69.00;;;;;;4986758;28;20242;-76
2021/07/22 10:55:43;;;;;;;0.50;0.50;;;27.90;68.40;;;;;;4968770;28;20129;-77
2021/07/22 10:58:24;;;;;;;0.82;0.80;;;28.20;67.90;;;;;;4976452;28;20041;-75
2021/07/22 11:00:50;;;;;;;0.50;0.50;;;27.50;68.00;;;;;;4999687;28;20062;-76
2021/07/22 11:03:35;;;;;;;2.22;1.70;;;28.30;68.10;;;;;;4989949;28;20034;-78
2021/07/22 11:06:01;;;;;;;0.60;0.60;;;28.70;67.70;;;;;;4989221;28;20042;-81
2021/07/22 11:08:29;;;;;;;1.05;0.68;;;28.70;66.10;;;;;;4994678;28;20034;-80
2021/07/22 11:11:01;;;;;;;0.60;0.52;;;27.80;68.70;;;;;;4977594;28;20088;-77
2021/07/22 11:13:40;;;;;;;1.13;1.02;;;28.50;66.60;;;;;;4994677;28;20133;-80
2021/07/22 11:16:26;;;;;;;0.45;0.45;;;29.20;65.80;;;;;;4995189;28;20390;-79
2021/07/22 11:19:14;;;;;;;1.10;0.77;;;29.50;64.60;;;;;;4994580;28;20057;-79
2021/07/22 11:21:49;;;;;;;0.85;0.75;;;29.50;64.20;;;;;;4977158;28;20494;-82
2021/07/22 11:24:20;;;;;;;1.00;0.88;;;29.80;65.00;;;;;;4994133;28;20034;-82
2021/07/22 11:26:51;;;;;;;2.40;0.85;;;29.60;65.10;;;;;;4994630;28;20360;-81
2021/07/22 11:29:18;;;;;;;0.60;0.60;;;29.50;63.90;;;;;;4994284;28;20026;-83
2021/07/22 11:31:46;;;;;;;1.85;1.00;;;29.90;64.70;;;;;;4994369;28;20114;-82
2021/07/22 11:34:12;;;;;;;1.17;0.88;;;30.00;62.40;;;;;;4994235;28;20082;-82
2021/07/22 11:36:38;;;;;;;0.35;0.35;;;29.80;61.30;;;;;;4977061;28;20038;-79
2021/07/22 11:39:05;;;;;;;0.80;0.60;;;29.80;61.40;;;;;;4993463;28;20393;-82
2021/07/22 11:41:31;;;;;;;0.30;0.30;;;30.10;62.40;;;;;;4994285;28;20030;-82
2021/07/22 11:44:02;;;;;;;0.50;0.50;;;30.60;62.40;;;;;;4994132;28;20039;-82
2021/07/22 11:46:40;;;;;;;0.40;0.40;;;30.80;60.60;;;;;;4993785;28;20117;-81
2021/07/22 11:49:09;;;;;;;0.75;0.70;;;31.20;60.40;;;;;;4994127;28;20034;-82
2021/07/22 11:51:36;;;;;;;1.48;1.23;;;30.30;59.90;;;;;;4976760;28;20030;-80
2021/07/22 11:54:02;;;;;;;0.40;0.40;;;30.30;60.00;;;;;;4993937;28;20030;-81
2021/07/22 11:56:37;;;;;;;0.85;0.85;;;29.80;59.70;;;;;;4994238;28;20033;-81
2021/07/22 11:59:06;;;;;;;1.00;0.88;;;29.00;59.60;;;;;;4993475;28;20026;-82
2021/07/22 12:01:36;;;;;;;0.30;0.30;;;29.00;60.20;;;;;;4994046;28;20042;-79
2021/07/22 12:04:02;;;;;;;0.40;0.40;;;29.30;61.00;;;;;;4993694;28;20169;-80
2021/07/22 12:06:29;;;;;;;0.75;0.60;;;29.90;59.40;;;;;;4976296;28;20035;-81
2021/07/22 12:09:08;;;;;;;0.73;0.73;;;30.40;58.90;;;;;;4976177;28;20124;-82
2021/07/22 12:11:57;;;;;;;0.50;0.50;;;30.70;58.20;;;;;;4976407;28;20450;-81
2021/07/22 12:14:29;;;;;;;0.40;0.40;;;30.20;58.20;;;;;;4993786;28;20038;-78
2021/07/22 12:17:01;;;;;;;0.38;0.38;;;30.30;58.90;;;;;;4975789;28;20513;-79
2021/07/22 12:19:28;;;;;;;0.40;0.40;;;30.50;58.30;;;;;;4976189;28;20482;-79
2021/07/22 12:22:16;;;;;;;0.98;0.50;;;29.80;59.30;;;;;;4976254;28;20038;-78
2021/07/22 12:24:42;;;;;;;0.30;0.30;;;29.70;59.20;;;;;;4993505;28;20030;-80
2021/07/22 12:27:31;;;;;;;0.73;0.63;;;30.20;58.30;;;;;;4993695;28;20441;-77
2021/07/22 12:30:05;;;;;;;0.40;0.40;;;30.30;58.20;;;;;;4976086;28;20394;-79
2021/07/22 12:32:31;;;;;;;0.30;0.30;;;30.50;57.40;;;;;;4993280;28;20048;-81
2021/07/22 12:34:58;;;;;;;0.40;0.40;;;30.70;58.60;;;;;;4992826;28;20387;-79
2021/07/22 12:38:02;;;;;;;0.40;0.40;;;30.00;56.40;;;;;;4993048;28;20081;-81
2021/07/22 12:40:32;;;;;;;1.48;1.17;;;30.20;56.20;;;;;;4993171;28;20027;-80
2021/07/22 12:42:59;;;;;;;0.50;0.45;;;29.50;56.60;;;;;;4993204;28;20070;-83
2021/07/22 12:45:25;;;;;;;0.55;0.35;;;29.40;57.10;;;;;;4993347;28;20049;-79
2021/07/22 12:47:51;;;;;;;0.45;0.40;;;30.20;57.30;;;;;;4975650;28;20395;-80
2021/07/22 12:50:29;;;;;;;0.32;0.32;;;30.50;57.30;;;;;;4975411;28;20049;-84